Cedarview, Washington
Current Conditions -  °F | °C
As of 6:58 PM on Tuesday 25 Nov 2014 (Local Time) from KTCM Reporting Station
Overcast Overcast  
Wind Chill: 56°   Ceiling: 2000
Heat Index: 56°   Visibility: 10mi
Dew Point: 56°   Wind: 10mph
Humidity: 99%   Direction: 200°SSW
Pressure: 30.21"   Gusts: NA
Location:  47.1874°N, 122.164°W
Report Text: KTCM 260258Z AUTO 20009KT 10SM FEW010 SCT016 BKN020 OVC031 13/13 A3021 RMK AO2 CIG 015V020 SLP234 60002 T01330131 55001 $
Loading
Personal Weather Stations






























Interactive Weather Map New forecast layout! Learn more

10-Day Weather Forecast

Advertisements
Track Severe Weather on mobile